sensor_id;sensor_type;location;lat;lon;timestamp;pressure;altitude;pressure_sealevel;temperature;humidity
13476;BME280;6810;63.824;20.288;2023-02-15T00:02:33;102489.06;;;1.60;100.00
13476;BME280;6810;63.824;20.288;2023-02-15T00:05:20;102495.22;;;1.62;100.00
13476;BME280;6810;63.824;20.288;2023-02-15T00:08:07;102491.69;;;1.61;100.00
13476;BME280;6810;63.824;20.288;2023-02-15T00:11:04;102495.19;;;1.60;100.00
13476;BME280;6810;63.824;20.288;2023-02-15T00:13:51;102489.91;;;1.57;100.00
13476;BME280;6810;63.824;20.288;2023-02-15T00:16:40;102483.78;;;1.58;100.00
13476;BME280;6810;63.824;20.288;2023-02-15T00:19:27;102496.94;;;1.58;100.00
13476;BME280;6810;63.824;20.288;2023-02-15T00:22:14;102487.25;;;1.57;100.00
13476;BME280;6810;63.824;20.288;2023-02-15T00:25:01;102484.63;;;1.56;100.00
13476;BME280;6810;63.824;20.288;2023-02-15T00:27:48;102453.88;;;1.37;100.00
13476;BME280;6810;63.824;20.288;2023-02-15T00:30:35;102469.72;;;1.50;100.00
13476;BME280;6810;63.824;20.288;2023-02-15T00:33:24;102475.88;;;1.52;100.00
13476;BME280;6810;63.824;20.288;2023-02-15T00:36:11;102486.38;;;1.51;100.00
13476;BME280;6810;63.824;20.288;2023-02-15T00:38:58;102479.31;;;1.48;100.00
13476;BME280;6810;63.824;20.288;2023-02-15T00:41:46;102467.06;;;1.44;100.00
13476;BME280;6810;63.824;20.288;2023-02-15T00:44:33;102475.81;;;1.46;100.00
13476;BME280;6810;63.824;20.288;2023-02-15T00:47:21;102475.81;;;1.45;100.00
13476;BME280;6810;63.824;20.288;2023-02-15T00:50:08;102481.06;;;1.43;100.00
13476;BME280;6810;63.824;20.288;2023-02-15T00:52:55;102476.66;;;1.41;100.00
13476;BME280;6810;63.824;20.288;2023-02-15T00:55:42;102477.50;;;1.38;100.00
13476;BME280;6810;63.824;20.288;2023-02-15T00:58:30;102472.25;;;1.37;100.00
13476;BME280;6810;63.824;20.288;2023-02-15T01:01:19;102481.84;;;1.35;100.00
13476;BME280;6810;63.824;20.288;2023-02-15T01:04:07;102448.47;;;1.19;100.00
13476;BME280;6810;63.824;20.288;2023-02-15T01:06:56;102378.16;;;0.77;100.00
13476;BME280;6810;63.824;20.288;2023-02-15T01:09:43;102463.38;;;1.21;100.00
13476;BME280;6810;63.824;20.288;2023-02-15T03:39:10;102388.16;;;0.26;100.00
13476;BME280;6810;63.824;20.288;2023-02-15T03:41:45;102400.38;;;0.24;100.00
13476;BME280;6810;63.824;20.288;2023-02-15T03:44:26;102380.16;;;0.16;100.00
13476;BME280;6810;63.824;20.288;2023-02-15T03:47:15;102385.53;;;0.28;100.00
13476;BME280;6810;63.824;20.288;2023-02-15T03:50:01;102382.09;;;0.30;100.00
13476;BME280;6810;63.824;20.288;2023-02-15T03:52:30;102333.75;;;0.04;100.00
13476;BME280;6810;63.824;20.288;2023-02-15T03:54:59;102359.25;;;0.20;100.00
13476;BME280;6810;63.824;20.288;2023-02-15T03:57:28;102383.03;;;0.35;100.00
13476;BME280;6810;63.824;20.288;2023-02-15T04:00:22;102376.88;;;0.33;100.00
13476;BME280;6810;63.824;20.288;2023-02-15T04:03:17;102371.56;;;0.27;100.00
13476;BME280;6810;63.824;20.288;2023-02-15T04:05:47;102381.19;;;0.30;100.00
13476;BME280;6810;63.824;20.288;2023-02-15T04:08:14;102376.81;;;0.27;100.00
13476;BME280;6810;63.824;20.288;2023-02-15T04:10:41;102374.16;;;0.24;100.00
13476;BME280;6810;63.824;20.288;2023-02-15T04:13:24;102382.84;;;0.22;100.00
13476;BME280;6810;63.824;20.288;2023-02-15T04:15:56;102377.59;;;0.20;100.00
13476;BME280;6810;63.824;20.288;2023-02-15T04:18:38;102375.81;;;0.16;100.00
13476;BME280;6810;63.824;20.288;2023-02-15T04:21:26;102351.16;;;-0.03;100.00
13476;BME280;6810;63.824;20.288;2023-02-15T04:24:12;102375.75;;;0.10;100.00
13476;BME280;6810;63.824;20.288;2023-02-15T04:26:59;102371.38;;;0.08;100.00
13476;BME280;6810;63.824;20.288;2023-02-15T04:29:27;102370.47;;;0.06;100.00
13476;BME280;6810;63.824;20.288;2023-02-15T04:31:55;102349.41;;;-0.04;100.00
13476;BME280;6810;63.824;20.288;2023-02-15T04:34:23;102350.22;;;-0.08;100.00
13476;BME280;6810;63.824;20.288;2023-02-15T04:36:51;102369.53;;;0.00;100.00
13476;BME280;6810;63.824;20.288;2023-02-15T04:39:18;102313.28;;;-0.30;100.00
13476;BME280;6810;63.824;20.288;2023-02-15T04:41:45;102364.25;;;-0.03;100.00
13476;BME280;6810;63.824;20.288;2023-02-15T04:44:13;102369.47;;;-0.04;100.00
13476;BME280;6810;63.824;20.288;2023-02-15T04:46:40;102373.81;;;-0.06;100.00
13476;BME280;6810;63.824;20.288;2023-02-15T04:49:08;102364.19;;;-0.07;100.00
13476;BME280;6810;63.824;20.288;2023-02-15T04:51:35;102365.91;;;-0.09;100.00
13476;BME280;6810;63.824;20.288;2023-02-15T04:54:02;102359.78;;;-0.13;100.00
13476;BME280;6810;63.824;20.288;2023-02-15T04:56:29;102371.09;;;-0.14;100.00
13476;BME280;6810;63.824;20.288;2023-02-15T04:58:57;102320.16;;;-0.38;100.00
13476;BME280;6810;63.824;20.288;2023-02-15T05:01:25;102363.22;;;-0.17;100.00
13476;BME280;6810;63.824;20.288;2023-02-15T05:03:52;102358.81;;;-0.19;100.00
13476;BME280;6810;63.824;20.288;2023-02-15T05:06:19;102357.91;;;-0.21;100.00
13476;BME280;6810;63.824;20.288;2023-02-15T05:08:46;102349.16;;;-0.25;100.00
13476;BME280;6810;63.824;20.288;2023-02-15T05:11:13;102350.84;;;-0.28;100.00
13476;BME280;6810;63.824;20.288;2023-02-15T05:13:40;102344.72;;;-0.30;100.00
13476;BME280;6810;63.824;20.288;2023-02-15T05:16:07;102350.81;;;-0.33;100.00
13476;BME280;6810;63.824;20.288;2023-02-15T05:18:35;102338.50;;;-0.37;100.00
13476;BME280;6810;63.824;20.288;2023-02-15T05:21:02;102342.00;;;-0.38;100.00
13476;BME280;6810;63.824;20.288;2023-02-15T05:23:29;102347.22;;;-0.39;100.00
13476;BME280;6810;63.824;20.288;2023-02-15T05:25:56;102305.00;;;-0.66;100.00
13476;BME280;6810;63.824;20.288;2023-02-15T05:28:42;102342.00;;;-0.39;100.00
13476;BME280;6810;63.824;20.288;2023-02-15T05:31:17;102341.13;;;-0.38;100.00
13476;BME280;6810;63.824;20.288;2023-02-15T05:33:45;102332.41;;;-0.37;100.00
13476;BME280;6810;63.824;20.288;2023-02-15T05:36:13;102341.13;;;-0.38;100.00
13476;BME280;6810;63.824;20.288;2023-02-15T05:38:40;102346.34;;;-0.40;100.00
13476;BME280;6810;63.824;20.288;2023-02-15T05:41:08;102339.34;;;-0.42;100.00
13476;BME280;6810;63.824;20.288;2023-02-15T05:43:35;102348.09;;;-0.42;100.00
13476;BME280;6810;63.824;20.288;2023-02-15T05:46:03;102346.31;;;-0.43;100.00
13476;BME280;6810;63.824;20.288;2023-02-15T05:48:31;102348.03;;;-0.45;100.00
13476;BME280;6810;63.824;20.288;2023-02-15T05:51:00;102306.66;;;-0.71;100.00
13476;BME280;6810;63.824;20.288;2023-02-15T05:53:47;102336.63;;;-0.50;100.00
13476;BME280;6810;63.824;20.288;2023-02-15T05:56:35;102295.19;;;-0.81;100.00
13476;BME280;6810;63.824;20.288;2023-02-15T05:59:22;102335.63;;;-0.58;100.00
13476;BME280;6810;63.824;20.288;2023-02-15T06:02:09;102340.03;;;-0.58;100.00
13476;BME280;6810;63.824;20.288;2023-02-15T06:04:56;102327.72;;;-0.64;100.00
13476;BME280;6810;63.824;20.288;2023-02-15T06:07:43;102296.00;;;-0.86;100.00
13476;BME280;6810;63.824;20.288;2023-02-15T06:10:31;102294.22;;;-0.90;100.00
13476;BME280;6810;63.824;20.288;2023-02-15T06:13:18;102305.59;;;-0.87;100.00
13476;BME280;6810;63.824;20.288;2023-02-15T06:16:06;102316.06;;;-0.85;100.00
13476;BME280;6810;63.824;20.288;2023-02-15T06:18:53;102316.00;;;-0.91;100.00
13476;BME280;6810;63.824;20.288;2023-02-15T06:21:40;102340.53;;;-0.83;100.00
13476;BME280;6810;63.824;20.288;2023-02-15T06:24:27;102334.38;;;-0.87;100.00
13476;BME280;6810;63.824;20.288;2023-02-15T06:27:14;102297.47;;;-1.06;100.00
13476;BME280;6810;63.824;20.288;2023-02-15T06:30:01;102330.84;;;-0.92;100.00
13476;BME280;6810;63.824;20.288;2023-02-15T06:32:48;102333.41;;;-0.95;100.00
13476;BME280;6810;63.824;20.288;2023-02-15T06:35:35;102329.88;;;-0.97;100.00
13476;BME280;6810;63.824;20.288;2023-02-15T06:38:22;102279.75;;;-1.27;100.00
13476;BME280;6810;63.824;20.288;2023-02-15T06:41:09;102333.28;;;-1.02;100.00
13476;BME280;6810;63.824;20.288;2023-02-15T06:43:56;102331.50;;;-1.05;100.00
13476;BME280;6810;63.824;20.288;2023-02-15T06:46:43;102310.34;;;-1.20;100.00
13476;BME280;6810;63.824;20.288;2023-02-15T06:49:30;102277.75;;;-1.41;100.00
13476;BME280;6810;63.824;20.288;2023-02-15T06:52:17;102323.56;;;-1.11;100.00
13476;BME280;6810;63.824;20.288;2023-02-15T06:55:05;102320.84;;;-1.17;100.00
13476;BME280;6810;63.824;20.288;2023-02-15T06:57:52;102312.94;;;-1.21;100.00
13476;BME280;6810;63.824;20.288;2023-02-15T07:00:39;102328.69;;;-1.17;100.00
13476;BME280;6810;63.824;20.288;2023-02-15T07:03:26;102316.47;;;-1.19;100.00
13476;BME280;6810;63.824;20.288;2023-02-15T07:06:13;102311.22;;;-1.21;100.00
13476;BME280;6810;63.824;20.288;2023-02-15T07:09:00;102301.41;;;-1.34;100.00
13476;BME280;6810;63.824;20.288;2023-02-15T07:11:47;102325.97;;;-1.24;100.00
13476;BME280;6810;63.824;20.288;2023-02-15T07:14:33;102319.00;;;-1.25;100.00
13476;BME280;6810;63.824;20.288;2023-02-15T07:17:20;102312.00;;;-1.26;100.00
13476;BME280;6810;63.824;20.288;2023-02-15T07:20:18;102311.06;;;-1.30;100.00
13476;BME280;6810;63.824;20.288;2023-02-15T07:23:06;102306.66;;;-1.32;100.00
13476;BME280;6810;63.824;20.288;2023-02-15T07:25:57;102313.66;;;-1.31;100.00
13476;BME280;6810;63.824;20.288;2023-02-15T07:28:44;102317.09;;;-1.34;100.00
13476;BME280;6810;63.824;20.288;2023-02-15T07:31:31;102263.47;;;-1.63;100.00
13476;BME280;6810;63.824;20.288;2023-02-15T07:34:18;102236.25;;;-1.76;100.00
13476;BME280;6810;63.824;20.288;2023-02-15T07:37:05;102306.59;;;-1.37;100.00
13476;BME280;6810;63.824;20.288;2023-02-15T07:39:52;102249.44;;;-1.68;100.00
13476;BME280;6810;63.824;20.288;2023-02-15T07:42:39;102253.03;;;-1.61;100.00
13476;BME280;6810;63.824;20.288;2023-02-15T07:45:26;102295.19;;;-1.40;100.00
13476;BME280;6810;63.824;20.288;2023-02-15T07:48:13;102289.25;;;-1.32;100.00
13476;BME280;6810;63.824;20.288;2023-02-15T07:51:04;102189.06;;;-1.88;100.00
13476;BME280;6810;63.824;20.288;2023-02-15T07:53:51;102283.19;;;-1.28;100.00
13476;BME280;6810;63.824;20.288;2023-02-15T07:56:38;102291.09;;;-1.23;100.00
13476;BME280;6810;63.824;20.288;2023-02-15T07:59:25;102290.25;;;-1.24;100.00
13476;BME280;6810;63.824;20.288;2023-02-15T08:02:12;102286.75;;;-1.24;100.00
13476;BME280;6810;63.824;20.288;2023-02-15T08:04:59;102247.25;;;-1.44;100.00
13476;BME280;6810;63.824;20.288;2023-02-15T08:07:46;102284.09;;;-1.26;100.00
13476;BME280;6810;63.824;20.288;2023-02-15T08:10:33;102277.97;;;-1.28;100.00
13476;BME280;6810;63.824;20.288;2023-02-15T08:13:18;102277.91;;;-1.31;100.00
13476;BME280;6810;63.824;20.288;2023-02-15T08:15:49;102248.91;;;-1.49;100.00
13476;BME280;6810;63.824;20.288;2023-02-15T08:18:17;102271.75;;;-1.36;100.00
13476;BME280;6810;63.824;20.288;2023-02-15T08:20:49;102270.03;;;-1.34;100.00
13476;BME280;6810;63.824;20.288;2023-02-15T08:23:16;102263.84;;;-1.39;100.00
13476;BME280;6810;63.824;20.288;2023-02-15T08:25:43;102267.41;;;-1.34;100.00
13476;BME280;6810;63.824;20.288;2023-02-15T08:28:10;102249.03;;;-1.40;100.00
13476;BME280;6810;63.824;20.288;2023-02-15T08:30:37;102256.97;;;-1.34;100.00
13476;BME280;6810;63.824;20.288;2023-02-15T08:33:04;102260.47;;;-1.32;100.00
13476;BME280;6810;63.824;20.288;2023-02-15T08:35:31;102257.88;;;-1.32;100.00
13476;BME280;6810;63.824;20.288;2023-02-15T08:37:58;102255.28;;;-1.30;100.00
13476;BME280;6810;63.824;20.288;2023-02-15T08:40:45;102250.97;;;-1.28;100.00
13476;BME280;6810;63.824;20.288;2023-02-15T08:43:32;102252.72;;;-1.26;100.00
13476;BME280;6810;63.824;20.288;2023-02-15T08:46:21;102237.88;;;-1.28;100.00
13476;BME280;6810;63.824;20.288;2023-02-15T08:49:10;102237.97;;;-1.22;100.00
13476;BME280;6810;63.824;20.288;2023-02-15T08:51:58;102238.88;;;-1.19;100.00
13476;BME280;6810;63.824;20.288;2023-02-15T08:54:45;102238.88;;;-1.17;100.00
13476;BME280;6810;63.824;20.288;2023-02-15T08:57:32;102234.56;;;-1.15;100.00
13476;BME280;6810;63.824;20.288;2023-02-15T09:00:20;102232.00;;;-1.12;100.00
13476;BME280;6810;63.824;20.288;2023-02-15T09:03:07;102213.59;;;-1.18;100.00
13476;BME280;6810;63.824;20.288;2023-02-15T09:06:00;102230.31;;;-1.07;100.00
13476;BME280;6810;63.824;20.288;2023-02-15T09:08:51;102216.38;;;-1.06;100.00
13476;BME280;6810;63.824;20.288;2023-02-15T09:11:43;102212.06;;;-1.03;100.00
13476;BME280;6810;63.824;20.288;2023-02-15T09:14:30;102207.72;;;-0.99;100.00
13476;BME280;6810;63.824;20.288;2023-02-15T09:17:17;102212.13;;;-0.97;100.00
13476;BME280;6810;63.824;20.288;2023-02-15T09:20:05;102202.50;;;-0.98;100.00
13476;BME280;6810;63.824;20.288;2023-02-15T09:22:52;102209.59;;;-0.91;100.00
13476;BME280;6810;63.824;20.288;2023-02-15T09:25:52;102213.97;;;-0.90;100.00
13476;BME280;6810;63.824;20.288;2023-02-15T09:28:39;102208.78;;;-0.84;100.00
13476;BME280;6810;63.824;20.288;2023-02-15T09:31:29;102206.22;;;-0.81;100.00
13476;BME280;6810;63.824;20.288;2023-02-15T09:34:19;102187.00;;;-0.84;100.00
13476;BME280;6810;63.824;20.288;2023-02-15T09:37:06;102192.34;;;-0.74;100.00
13476;BME280;6810;63.824;20.288;2023-02-15T09:39:53;102194.16;;;-0.68;100.00
13476;BME280;6810;63.824;20.288;2023-02-15T09:46:24;102197.75;;;-0.60;100.00
13476;BME280;6810;63.824;20.288;2023-02-15T09:49:45;102188.19;;;-0.55;100.00
13476;BME280;6810;63.824;20.288;2023-02-15T09:58:42;102169.06;;;-0.48;100.00
13476;BME280;6810;63.824;20.288;2023-02-15T10:08:18;102184.16;;;-0.23;100.00
13476;BME280;6810;63.824;20.288;2023-02-15T10:26:07;102183.50;;;0.07;100.00
13476;BME280;6810;63.824;20.288;2023-02-15T10:31:27;102174.84;;;0.14;100.00
13476;BME280;6810;63.824;20.288;2023-02-15T10:34:19;102178.38;;;0.20;100.00
13476;BME280;6810;63.824;20.288;2023-02-15T10:39:48;102171.44;;;0.30;100.00
13476;BME280;6810;63.824;20.288;2023-02-15T10:48:21;102175.91;;;0.43;100.00
13476;BME280;6810;63.824;20.288;2023-02-15T10:50:51;102162.81;;;0.46;100.00
13476;BME280;6810;63.824;20.288;2023-02-15T10:53:52;102166.31;;;0.51;100.00
13476;BME280;6810;63.824;20.288;2023-02-15T11:02:25;102156.78;;;0.63;100.00
13476;BME280;6810;63.824;20.288;2023-02-15T11:07:40;102160.34;;;0.71;100.00
13476;BME280;6810;63.824;20.288;2023-02-15T11:12:45;102156.00;;;0.76;100.00
13476;BME280;6810;63.824;20.288;2023-02-15T11:16:03;102149.88;;;0.80;100.00
13476;BME280;6810;63.824;20.288;2023-02-15T11:18:35;102133.22;;;0.77;100.00
13476;BME280;6810;63.824;20.288;2023-02-15T11:21:05;102140.28;;;0.85;100.00
13476;BME280;6810;63.824;20.288;2023-02-15T11:23:44;102138.53;;;0.89;100.00
13476;BME280;6810;63.824;20.288;2023-02-15T11:26:15;102139.41;;;0.91;100.00
13476;BME280;6810;63.824;20.288;2023-02-15T11:28:55;102132.44;;;0.94;100.00
13476;BME280;6810;63.824;20.288;2023-02-15T11:31:25;102111.41;;;0.85;100.00
13476;BME280;6810;63.824;20.288;2023-02-15T11:37:48;102133.38;;;1.07;100.00
13476;BME280;6810;63.824;20.288;2023-02-15T11:43:50;102122.88;;;1.14;100.00
13476;BME280;6810;63.824;20.288;2023-02-15T11:46:40;102115.00;;;1.14;100.00
13476;BME280;6810;63.824;20.288;2023-02-15T11:49:32;102107.13;;;1.16;100.00
13476;BME280;6810;63.824;20.288;2023-02-15T11:52:11;102118.50;;;1.25;100.00
13476;BME280;6810;63.824;20.288;2023-02-15T11:54:41;102118.53;;;1.28;100.00
13476;BME280;6810;63.824;20.288;2023-02-15T11:59:41;102107.16;;;1.35;100.00
13476;BME280;6810;63.824;20.288;2023-02-15T12:02:19;102097.53;;;1.33;100.00
13476;BME280;6810;63.824;20.288;2023-02-15T12:05:11;102059.88;;;1.13;100.00
13476;BME280;6810;63.824;20.288;2023-02-15T12:07:45;102090.50;;;1.36;100.00
13476;BME280;6810;63.824;20.288;2023-02-15T12:10:40;102097.56;;;1.46;100.00
13476;BME280;6810;63.824;20.288;2023-02-15T12:13:30;102106.28;;;1.54;100.00
13476;BME280;6810;63.824;20.288;2023-02-15T12:16:17;102093.16;;;1.59;100.00
13476;BME280;6810;63.824;20.288;2023-02-15T12:19:04;102087.94;;;1.62;100.00
13476;BME280;6810;63.824;20.288;2023-02-15T12:21:52;102041.50;;;1.37;100.00
13476;BME280;6810;63.824;20.288;2023-02-15T12:27:13;102009.09;;;1.26;100.00
13476;BME280;6810;63.824;20.288;2023-02-15T12:29:46;102080.03;;;1.71;100.00
13476;BME280;6810;63.824;20.288;2023-02-15T12:32:19;102082.66;;;1.72;100.00
13476;BME280;6810;63.824;20.288;2023-02-15T12:34:50;102043.25;;;1.45;100.00
13476;BME280;6810;63.824;20.288;2023-02-15T12:37:23;102076.53;;;1.69;100.00
13476;BME280;6810;63.824;20.288;2023-02-15T12:39:57;102094.03;;;1.76;100.00
13476;BME280;6810;63.824;20.288;2023-02-15T12:42:26;102085.28;;;1.75;100.00
13476;BME280;6810;63.824;20.288;2023-02-15T12:44:56;102091.41;;;1.77;100.00
13476;BME280;6810;63.824;20.288;2023-02-15T12:47:24;102087.91;;;1.77;100.00
13476;BME280;6810;63.824;20.288;2023-02-15T12:52:38;102038.88;;;1.53;100.00
13476;BME280;6810;63.824;20.288;2023-02-15T12:55:21;102088.78;;;1.77;100.00
13476;BME280;6810;63.824;20.288;2023-02-15T12:58:05;102090.53;;;1.77;100.00
13476;BME280;6810;63.824;20.288;2023-02-15T13:00:32;102093.19;;;1.77;100.00
13476;BME280;6810;63.824;20.288;2023-02-15T13:03:00;102065.13;;;1.58;100.00
13476;BME280;6810;63.824;20.288;2023-02-15T13:05:44;102083.53;;;1.70;100.00
13476;BME280;6810;63.824;20.288;2023-02-15T13:08:19;102067.75;;;1.64;100.00
13476;BME280;6810;63.824;20.288;2023-02-15T13:13:28;102079.16;;;1.70;100.00
13476;BME280;6810;63.824;20.288;2023-02-15T13:16:00;102077.41;;;1.71;100.00
13476;BME280;6810;63.824;20.288;2023-02-15T13:18:38;102073.91;;;1.70;100.00
13476;BME280;6810;63.824;20.288;2023-02-15T13:24:01;102068.66;;;1.69;100.00
13476;BME280;6810;63.824;20.288;2023-02-15T13:26:49;102040.59;;;1.51;100.00
13476;BME280;6810;63.824;20.288;2023-02-15T13:29:48;102069.53;;;1.68;100.00
13476;BME280;6810;63.824;20.288;2023-02-15T13:32:38;102028.38;;;1.49;100.00
13476;BME280;6810;63.824;20.288;2023-02-15T13:35:31;102058.13;;;1.67;100.00
13476;BME280;6810;63.824;20.288;2023-02-15T13:38:49;102053.75;;;1.68;100.00
13476;BME280;6810;63.824;20.288;2023-02-15T13:41:56;102045.00;;;1.67;100.00
13476;BME280;6810;63.824;20.288;2023-02-15T13:45:02;102049.38;;;1.67;100.00
13476;BME280;6810;63.824;20.288;2023-02-15T13:48:46;102024.00;;;1.54;100.00
13476;BME280;6810;63.824;20.288;2023-02-15T14:09:40;102032.75;;;1.63;100.00
13476;BME280;6810;63.824;20.288;2023-02-15T14:18:35;102014.34;;;1.53;100.00
13476;BME280;6810;63.824;20.288;2023-02-15T14:21:44;102014.34;;;1.57;100.00
13476;BME280;6810;63.824;20.288;2023-02-15T14:24:40;101999.47;;;1.49;100.00
13476;BME280;6810;63.824;20.288;2023-02-15T14:27:56;102012.59;;;1.55;100.00
13476;BME280;6810;63.824;20.288;2023-02-15T14:30:49;101973.22;;;1.29;100.00
13476;BME280;6810;63.824;20.288;2023-02-15T14:33:43;102007.34;;;1.53;100.00
13476;BME280;6810;63.824;20.288;2023-02-15T14:36:33;102009.97;;;1.50;100.00
13476;BME280;6810;63.824;20.288;2023-02-15T14:39:39;101998.59;;;1.48;100.00
13476;BME280;6810;63.824;20.288;2023-02-15T14:42:39;102009.97;;;1.47;100.00
13476;BME280;6810;63.824;20.288;2023-02-15T14:48:33;101995.97;;;1.47;100.00
13476;BME280;6810;63.824;20.288;2023-02-15T14:57:23;102003.84;;;1.42;100.00
13476;BME280;6810;63.824;20.288;2023-02-15T15:00:36;102003.00;;;1.40;100.00
13476;BME280;6810;63.824;20.288;2023-02-15T15:03:24;102001.22;;;1.39;100.00
13476;BME280;6810;63.824;20.288;2023-02-15T15:06:25;101998.59;;;1.38;100.00
13476;BME280;6810;63.824;20.288;2023-02-15T15:09:25;101994.22;;;1.37;100.00
13476;BME280;6810;63.824;20.288;2023-02-15T15:18:08;101982.84;;;1.30;100.00
13476;BME280;6810;63.824;20.288;2023-02-15T15:20:56;101979.38;;;1.28;100.00
13476;BME280;6810;63.824;20.288;2023-02-15T15:23:43;101983.72;;;1.29;100.00
13476;BME280;6810;63.824;20.288;2023-02-15T15:26:32;101972.34;;;1.29;100.00
13476;BME280;6810;63.824;20.288;2023-02-15T15:29:39;101968.84;;;1.24;100.00
13476;BME280;6810;63.824;20.288;2023-02-15T15:32:31;101975.84;;;1.28;100.00
13476;BME280;6810;63.824;20.288;2023-02-15T15:35:54;101971.47;;;1.27;100.00
13476;BME280;6810;63.824;20.288;2023-02-15T15:39:06;101966.22;;;1.22;100.00
13476;BME280;6810;63.824;20.288;2023-02-15T15:48:29;101960.94;;;1.22;100.00
13476;BME280;6810;63.824;20.288;2023-02-15T15:51:33;101960.09;;;1.20;100.00
13476;BME280;6810;63.824;20.288;2023-02-15T15:54:23;101957.47;;;1.19;100.00
13476;BME280;6810;63.824;20.288;2023-02-15T15:57:31;101955.72;;;1.16;100.00
13476;BME280;6810;63.824;20.288;2023-02-15T16:00:25;101949.59;;;1.16;100.00
13476;BME280;6810;63.824;20.288;2023-02-15T16:03:22;101940.84;;;1.15;100.00
13476;BME280;6810;63.824;20.288;2023-02-15T16:06:13;101945.22;;;1.12;100.00
13476;BME280;6810;63.824;20.288;2023-02-15T16:09:21;101918.97;;;0.97;100.00
13476;BME280;6810;63.824;20.288;2023-02-15T16:12:15;101932.09;;;1.15;100.00
13476;BME280;6810;63.824;20.288;2023-02-15T16:15:14;101930.34;;;1.15;100.00
13476;BME280;6810;63.824;20.288;2023-02-15T16:18:02;101911.09;;;1.01;100.00
13476;BME280;6810;63.824;20.288;2023-02-15T16:20:54;101927.72;;;1.15;100.00
13476;BME280;6810;63.824;20.288;2023-02-15T16:27:03;101915.47;;;1.16;100.00
13476;BME280;6810;63.824;20.288;2023-02-15T16:29:55;101906.72;;;1.14;100.00
13476;BME280;6810;63.824;20.288;2023-02-15T16:32:42;101911.97;;;1.14;100.00
13476;BME280;6810;63.824;20.288;2023-02-15T16:35:29;101908.44;;;1.15;100.00
13476;BME280;6810;63.824;20.288;2023-02-15T16:38:17;101904.09;;;1.14;100.00
13476;BME280;6810;63.824;20.288;2023-02-15T16:41:04;101899.72;;;1.14;100.00
13476;BME280;6810;63.824;20.288;2023-02-15T16:43:52;101887.47;;;1.07;100.00
13476;BME280;6810;63.824;20.288;2023-02-15T16:46:43;101889.22;;;1.13;100.00
13476;BME280;6810;63.824;20.288;2023-02-15T16:49:33;101886.59;;;1.13;100.00
13476;BME280;6810;63.824;20.288;2023-02-15T16:52:23;101883.09;;;1.11;100.00
13476;BME280;6810;63.824;20.288;2023-02-15T16:55:21;101868.22;;;1.08;100.00
13476;BME280;6810;63.824;20.288;2023-02-15T16:58:14;101874.31;;;1.13;100.00
13476;BME280;6810;63.824;20.288;2023-02-15T17:01:03;101872.59;;;1.12;100.00
13476;BME280;6810;63.824;20.288;2023-02-15T17:03:50;101866.47;;;1.12;100.00
13476;BME280;6810;63.824;20.288;2023-02-15T17:06:37;101832.38;;;0.92;100.00
13476;BME280;6810;63.824;20.288;2023-02-15T17:09:24;101866.44;;;1.13;100.00
13476;BME280;6810;63.824;20.288;2023-02-15T17:12:09;101861.19;;;1.13;100.00
13476;BME280;6810;63.824;20.288;2023-02-15T17:14:56;101849.84;;;1.13;100.00
13476;BME280;6810;63.824;20.288;2023-02-15T17:17:43;101846.34;;;1.14;100.00
13476;BME280;6810;63.824;20.288;2023-02-15T17:20:30;101845.44;;;1.15;100.00
13476;BME280;6810;63.824;20.288;2023-02-15T17:23:26;101839.34;;;1.14;100.00
13476;BME280;6810;63.824;20.288;2023-02-15T17:26:29;101815.75;;;0.99;100.00
13476;BME280;6810;63.824;20.288;2023-02-15T17:29:26;101841.06;;;1.17;100.00
13476;BME280;6810;63.824;20.288;2023-02-15T17:32:21;101761.53;;;0.80;100.00
13476;BME280;6810;63.824;20.288;2023-02-15T17:35:19;101826.22;;;1.19;100.00
13476;BME280;6810;63.824;20.288;2023-02-15T17:38:20;101820.06;;;1.17;100.00
13476;BME280;6810;63.824;20.288;2023-02-15T17:41:07;101823.59;;;1.19;100.00
13476;BME280;6810;63.824;20.288;2023-02-15T17:43:54;101820.94;;;1.20;100.00
13476;BME280;6810;63.824;20.288;2023-02-15T17:46:42;101816.56;;;1.18;100.00
13476;BME280;6810;63.824;20.288;2023-02-15T17:49:29;101813.94;;;1.21;100.00
13476;BME280;6810;63.824;20.288;2023-02-15T17:52:16;101810.44;;;1.22;100.00
13476;BME280;6810;63.824;20.288;2023-02-15T17:55:13;101803.41;;;1.22;100.00
13476;BME280;6810;63.824;20.288;2023-02-15T17:57:59;101793.81;;;1.23;100.00
13476;BME280;6810;63.824;20.288;2023-02-15T18:00:48;101791.19;;;1.23;100.00
13476;BME280;6810;63.824;20.288;2023-02-15T18:06:29;101754.47;;;1.11;100.00
13476;BME280;6810;63.824;20.288;2023-02-15T18:09:16;101764.94;;;1.17;100.00
13476;BME280;6810;63.824;20.288;2023-02-15T18:14:59;101769.28;;;1.28;100.00
13476;BME280;6810;63.824;20.288;2023-02-15T18:17:46;101764.03;;;1.28;100.00
13476;BME280;6810;63.824;20.288;2023-02-15T18:20:35;101758.78;;;1.30;100.00
13476;BME280;6810;63.824;20.288;2023-02-15T18:23:25;101741.28;;;1.24;100.00
13476;BME280;6810;63.824;20.288;2023-02-15T18:26:20;101752.63;;;1.32;100.00
13476;BME280;6810;63.824;20.288;2023-02-15T18:29:07;101744.75;;;1.32;100.00
13476;BME280;6810;63.824;20.288;2023-02-15T18:31:54;101733.38;;;1.32;100.00
13476;BME280;6810;63.824;20.288;2023-02-15T18:34:43;101745.66;;;1.33;100.00
13476;BME280;6810;63.824;20.288;2023-02-15T18:37:32;101717.69;;;1.20;100.00
13476;BME280;6810;63.824;20.288;2023-02-15T18:40:21;101736.88;;;1.35;100.00
13476;BME280;6810;63.824;20.288;2023-02-15T18:43:12;101684.53;;;1.02;100.00
13476;BME280;6810;63.824;20.288;2023-02-15T18:45:59;101731.63;;;1.35;100.00
13476;BME280;6810;63.824;20.288;2023-02-15T18:48:46;101729.84;;;1.39;100.00
13476;BME280;6810;63.824;20.288;2023-02-15T18:51:33;101703.66;;;1.30;100.00
13476;BME280;6810;63.824;20.288;2023-02-15T18:54:24;101724.59;;;1.40;100.00